createdAt,value
2022-10-24T00:01:11.442Z,11.80
2022-10-24T00:03:38.784Z,11.80
2022-10-24T00:06:07.557Z,11.80
2022-10-24T00:08:35.862Z,11.80
2022-10-24T00:11:08.115Z,11.70
2022-10-24T00:13:34.943Z,11.80
2022-10-24T00:16:01.693Z,11.70
2022-10-24T00:18:28.465Z,11.70
2022-10-24T00:20:55.221Z,11.70
2022-10-24T00:23:21.962Z,11.60
2022-10-24T00:25:48.745Z,11.60
2022-10-24T00:28:15.500Z,11.60
2022-10-24T00:30:42.257Z,11.60
2022-10-24T00:33:09.110Z,11.50
2022-10-24T00:35:35.897Z,11.50
2022-10-24T00:38:02.680Z,11.50
2022-10-24T00:40:29.493Z,11.40
2022-10-24T00:42:56.237Z,11.40
2022-10-24T00:45:40.519Z,11.40
2022-10-24T00:48:27.891Z,11.30
2022-10-24T00:51:00.746Z,11.30
2022-10-24T00:53:29.730Z,11.40
2022-10-24T00:56:00.854Z,11.40
2022-10-24T00:58:30.870Z,11.40
2022-10-24T01:00:58.361Z,11.40
2022-10-24T01:03:25.516Z,11.40
2022-10-24T01:06:34.134Z,11.40
2022-10-24T01:09:11.231Z,11.40
2022-10-24T01:12:03.102Z,11.50
2022-10-24T01:15:11.801Z,11.40
2022-10-24T01:17:52.231Z,11.40
2022-10-24T01:20:24.948Z,11.40
2022-10-24T01:23:15.440Z,11.50
2022-10-24T01:25:51.145Z,11.40
2022-10-24T01:28:19.329Z,11.40
2022-10-24T01:30:51.211Z,11.40
2022-10-24T01:33:33.773Z,11.30
2022-10-24T01:36:13.844Z,11.30
2022-10-24T01:39:03.706Z,11.30
2022-10-24T01:41:33.211Z,11.30
2022-10-24T01:44:09.037Z,11.20
2022-10-24T01:46:37.507Z,11.30
2022-10-24T01:49:20.117Z,11.20
2022-10-24T01:51:52.001Z,11.20
2022-10-24T01:54:19.700Z,11.20
2022-10-24T01:56:46.547Z,11.20
2022-10-24T01:59:28.712Z,11.30
2022-10-24T02:02:06.556Z,11.20
2022-10-24T02:04:36.053Z,11.20
2022-10-24T02:07:07.560Z,11.20
2022-10-24T02:09:38.235Z,11.30
2022-10-24T02:12:10.729Z,11.30
2022-10-24T02:14:44.766Z,11.30
2022-10-24T02:17:11.727Z,11.30
2022-10-24T02:19:38.565Z,11.40
2022-10-24T02:22:21.655Z,11.40
2022-10-24T02:24:59.886Z,11.60
2022-10-24T02:27:43.596Z,11.50
2022-10-24T02:30:21.896Z,11.50
2022-10-24T02:32:56.452Z,11.40
2022-10-24T02:35:27.563Z,11.40
2022-10-24T02:38:00.024Z,11.30
2022-10-24T02:40:27.174Z,11.40
2022-10-24T02:42:58.436Z,11.40
2022-10-24T02:45:26.517Z,11.30
2022-10-24T02:47:57.895Z,11.40
2022-10-24T02:50:25.304Z,11.40
2022-10-24T02:52:52.144Z,11.50
2022-10-24T02:55:19.111Z,11.50
2022-10-24T02:57:45.856Z,11.50
2022-10-24T03:00:13.135Z,11.50
2022-10-24T03:02:39.890Z,11.50
2022-10-24T03:05:06.962Z,11.50
2022-10-24T03:07:33.788Z,11.50
2022-10-24T03:10:00.648Z,11.50
2022-10-24T03:12:27.476Z,11.50
2022-10-24T03:14:54.344Z,11.50
2022-10-24T03:17:21.913Z,11.50
2022-10-24T03:19:48.756Z,11.50
2022-10-24T03:22:15.552Z,11.50
2022-10-24T03:24:44.500Z,11.60
2022-10-24T03:27:21.626Z,11.60
2022-10-24T03:29:48.383Z,11.50
2022-10-24T03:32:15.287Z,11.60
2022-10-24T03:34:42.194Z,11.50
2022-10-24T03:37:09.086Z,11.60
2022-10-24T03:39:35.974Z,11.60
2022-10-24T03:42:02.775Z,11.50
2022-10-24T03:44:29.849Z,11.50
2022-10-24T03:46:56.565Z,11.50
2022-10-24T03:49:23.362Z,11.50
2022-10-24T03:51:50.102Z,11.40
2022-10-24T03:54:16.904Z,11.50
2022-10-24T03:56:45.073Z,11.50
2022-10-24T03:59:11.809Z,11.50
2022-10-24T04:01:38.712Z,11.50
2022-10-24T04:04:05.745Z,11.50
2022-10-24T04:06:35.623Z,11.60
2022-10-24T04:09:03.919Z,11.60
2022-10-24T04:11:30.906Z,11.60
2022-10-24T04:13:57.937Z,11.50
2022-10-24T04:16:24.786Z,11.50
2022-10-24T04:18:51.610Z,11.50
2022-10-24T04:21:21.520Z,11.50
2022-10-24T04:23:48.993Z,11.50
2022-10-24T04:26:18.512Z,11.50
2022-10-24T04:28:47.012Z,11.40
2022-10-24T04:31:16.876Z,11.50
2022-10-24T04:33:46.541Z,11.50
2022-10-24T04:36:13.387Z,11.50
2022-10-24T04:38:40.351Z,11.50
2022-10-24T04:41:09.865Z,11.60
2022-10-24T04:43:39.113Z,11.60
2022-10-24T04:46:06.050Z,11.60
2022-10-24T04:48:32.994Z,11.60
2022-10-24T04:50:59.856Z,11.50
2022-10-24T04:53:26.866Z,11.60
2022-10-24T04:55:53.629Z,11.60
2022-10-24T04:58:21.023Z,11.60
2022-10-24T05:00:49.820Z,11.70
2022-10-24T05:03:20.600Z,11.70
2022-10-24T05:05:48.345Z,11.70
2022-10-24T05:08:15.758Z,11.70
2022-10-24T05:10:42.583Z,11.70
2022-10-24T05:13:09.366Z,11.70
2022-10-24T05:15:36.284Z,11.70
2022-10-24T05:18:03.770Z,11.70
2022-10-24T05:20:31.134Z,11.80
2022-10-24T05:22:57.951Z,11.80
2022-10-24T05:25:24.816Z,11.90
2022-10-24T05:27:51.681Z,11.90
2022-10-24T05:30:18.540Z,11.80
2022-10-24T05:32:46.361Z,11.90
2022-10-24T05:35:13.578Z,12.00
2022-10-24T05:37:40.439Z,12.00
2022-10-24T05:40:09.658Z,12.00
2022-10-24T05:42:38.592Z,12.10
2022-10-24T05:45:07.379Z,12.00
2022-10-24T05:47:34.365Z,12.10
2022-10-24T05:50:01.092Z,12.10
2022-10-24T05:52:28.077Z,12.10
2022-10-24T05:54:55.790Z,12.20
2022-10-24T05:57:33.736Z,12.20
2022-10-24T06:00:00.971Z,12.30
2022-10-24T06:02:27.966Z,12.30
2022-10-24T06:04:56.181Z,12.30
2022-10-24T06:07:23.398Z,12.30
2022-10-24T06:09:50.276Z,12.30
2022-10-24T06:12:17.233Z,12.30
2022-10-24T06:14:44.838Z,12.30
2022-10-24T06:17:14.854Z,12.40
2022-10-24T06:19:41.796Z,12.40
2022-10-24T06:22:10.283Z,12.40
2022-10-24T06:24:38.309Z,12.40
2022-10-24T06:27:06.151Z,12.40
2022-10-24T06:29:33.435Z,12.40
2022-10-24T06:32:00.414Z,12.40
2022-10-24T06:34:27.833Z,12.40
2022-10-24T06:36:54.836Z,12.40
2022-10-24T06:39:21.668Z,12.40
2022-10-24T06:41:48.413Z,12.40
2022-10-24T06:44:15.427Z,12.40
2022-10-24T06:46:42.204Z,12.40
2022-10-24T06:49:10.006Z,12.30
2022-10-24T06:51:36.821Z,12.40
2022-10-24T06:54:03.723Z,12.40
2022-10-24T06:56:30.489Z,12.40
2022-10-24T06:58:57.411Z,12.40
2022-10-24T07:01:25.964Z,12.50
2022-10-24T07:03:53.855Z,12.50
2022-10-24T07:08:58.266Z,12.60
2022-10-24T07:11:26.043Z,12.60
2022-10-24T07:13:55.303Z,12.70
2022-10-24T07:16:25.323Z,12.70
2022-10-24T07:18:52.405Z,12.60
2022-10-24T07:21:22.926Z,12.60
2022-10-24T07:23:51.773Z,12.70
2022-10-24T07:26:19.762Z,12.80
2022-10-24T07:28:47.698Z,12.80
2022-10-24T07:31:18.058Z,12.80
2022-10-24T07:33:45.091Z,12.80
2022-10-24T07:36:19.971Z,12.80
2022-10-24T07:38:51.022Z,12.80
2022-10-24T07:41:18.682Z,12.80
2022-10-24T07:43:46.249Z,12.80
2022-10-24T07:46:15.489Z,12.90
2022-10-24T07:48:45.170Z,12.80
2022-10-24T07:51:14.676Z,12.90
2022-10-24T07:53:42.344Z,13.00
2022-10-24T07:56:13.243Z,13.00
2022-10-24T07:58:40.777Z,12.90
2022-10-24T08:01:10.601Z,12.90
2022-10-24T08:03:37.672Z,13.00
2022-10-24T08:06:06.029Z,13.00
2022-10-24T08:08:37.106Z,13.10
2022-10-24T08:11:19.311Z,13.30
2022-10-24T08:13:46.198Z,13.50
2022-10-24T08:16:15.171Z,13.60
2022-10-24T08:18:42.300Z,13.60
2022-10-24T08:21:12.450Z,13.70
2022-10-24T08:23:42.345Z,13.70
2022-10-24T08:26:12.187Z,13.70
2022-10-24T08:28:39.584Z,13.70
2022-10-24T08:31:10.352Z,13.70
2022-10-24T08:33:37.188Z,13.70
2022-10-24T08:36:11.858Z,13.70
2022-10-24T08:38:38.711Z,13.60
2022-10-24T08:41:06.968Z,13.70
2022-10-24T08:43:33.768Z,13.80
2022-10-24T08:46:12.453Z,13.80
2022-10-24T08:48:49.878Z,13.90
2022-10-24T08:59:37.868Z,13.90
2022-10-24T09:02:21.383Z,13.90
2022-10-24T09:05:11.221Z,13.90
2022-10-24T09:07:38.579Z,13.90
2022-10-24T09:10:15.662Z,13.90
2022-10-24T09:12:42.486Z,13.80
2022-10-24T09:15:28.537Z,13.80
2022-10-24T09:17:57.017Z,13.90
2022-10-24T09:20:30.515Z,14.00
2022-10-24T09:23:00.619Z,14.10
2022-10-24T09:25:31.823Z,14.00
2022-10-24T09:28:01.374Z,14.00
2022-10-24T09:30:31.629Z,14.00
2022-10-24T09:33:24.319Z,13.90
2022-10-24T09:35:54.170Z,13.90
2022-10-24T09:38:25.468Z,14.00
2022-10-24T09:40:55.640Z,14.10
2022-10-24T09:43:31.792Z,14.20
2022-10-24T09:46:04.775Z,14.20
2022-10-24T09:48:56.865Z,14.10
2022-10-24T09:51:28.262Z,14.20
2022-10-24T09:54:07.154Z,14.10
2022-10-24T09:56:40.127Z,14.10
2022-10-24T09:59:18.976Z,14.00
2022-10-24T10:01:46.187Z,14.10
2022-10-24T10:04:18.456Z,14.20
2022-10-24T10:06:50.194Z,14.20
2022-10-24T10:09:26.382Z,14.40
2022-10-24T10:12:05.048Z,14.50
2022-10-24T10:14:32.582Z,14.60
2022-10-24T10:17:05.714Z,14.70
2022-10-24T10:19:37.130Z,14.80
2022-10-24T10:22:21.272Z,14.80
2022-10-24T10:24:48.322Z,14.70
2022-10-24T10:27:39.395Z,14.70
2022-10-24T10:30:12.414Z,14.60
2022-10-24T10:32:41.967Z,14.60
2022-10-24T10:35:24.501Z,14.60
2022-10-24T10:38:16.215Z,14.60
2022-10-24T10:40:53.612Z,14.60
2022-10-24T10:43:52.264Z,14.40
2022-10-24T10:46:24.770Z,14.50
2022-10-24T10:49:03.106Z,14.50
2022-10-24T10:51:39.227Z,14.50
2022-10-24T10:54:44.054Z,14.50
2022-10-24T10:57:22.338Z,14.60
2022-10-24T11:00:09.634Z,14.60
2022-10-24T11:02:39.706Z,14.60
2022-10-24T11:05:22.196Z,14.50
2022-10-24T11:08:14.830Z,14.50
2022-10-24T11:11:07.850Z,14.50
2022-10-24T11:13:40.527Z,14.50
2022-10-24T11:16:14.348Z,14.50
2022-10-24T11:18:45.417Z,14.50
2022-10-24T11:21:14.706Z,14.40
2022-10-24T11:23:53.530Z,14.40
2022-10-24T11:26:23.689Z,14.40
2022-10-24T11:29:22.718Z,14.40
2022-10-24T11:31:55.443Z,14.40
2022-10-24T11:34:28.959Z,14.50
2022-10-24T11:37:06.142Z,14.50
2022-10-24T11:39:34.970Z,14.50
2022-10-24T11:42:08.292Z,14.50
2022-10-24T11:44:40.193Z,14.60
2022-10-24T11:47:24.983Z,14.60
2022-10-24T11:50:30.101Z,14.70
2022-10-24T11:53:15.068Z,14.60
2022-10-24T11:55:47.440Z,14.70
2022-10-24T11:58:19.700Z,14.70
2022-10-24T12:00:58.847Z,15.00
2022-10-24T12:03:28.606Z,15.10
2022-10-24T12:06:27.478Z,15.20
2022-10-24T12:09:20.255Z,15.50
2022-10-24T12:12:00.739Z,15.60
2022-10-24T12:14:42.555Z,15.70
2022-10-24T12:17:27.162Z,15.80
2022-10-24T12:19:54.465Z,15.70
2022-10-24T12:22:27.907Z,15.70
2022-10-24T12:25:33.208Z,15.50
2022-10-24T12:28:03.129Z,15.40
2022-10-24T12:30:36.433Z,15.40
2022-10-24T12:33:25.946Z,15.20
2022-10-24T12:35:58.917Z,15.10
2022-10-24T12:38:28.796Z,15.10
2022-10-24T12:41:28.575Z,15.10
2022-10-24T12:44:30.014Z,15.10
2022-10-24T12:46:56.958Z,15.20
2022-10-24T12:49:30.937Z,15.10
2022-10-24T12:51:58.679Z,15.00
2022-10-24T12:54:54.675Z,15.10
2022-10-24T12:57:28.556Z,15.00
2022-10-24T13:00:00.649Z,15.00
2022-10-24T13:02:33.678Z,15.00
2022-10-24T13:05:18.152Z,14.80
2022-10-24T13:08:22.530Z,14.80
2022-10-24T13:10:53.847Z,14.90
2022-10-24T13:13:39.412Z,14.80
2022-10-24T13:16:12.264Z,14.90
2022-10-24T13:19:03.832Z,14.80
2022-10-24T13:21:45.630Z,14.90
2022-10-24T13:24:28.569Z,14.80
2022-10-24T13:26:58.179Z,14.70
2022-10-24T13:29:28.076Z,14.50
2022-10-24T13:32:05.240Z,14.50
2022-10-24T13:34:50.263Z,14.50
2022-10-24T13:37:30.420Z,14.50
2022-10-24T13:40:01.340Z,14.50
2022-10-24T13:43:04.725Z,14.50
2022-10-24T13:45:51.950Z,14.50
2022-10-24T13:48:23.922Z,14.50
2022-10-24T13:51:19.702Z,14.40
2022-10-24T13:53:51.292Z,14.50
2022-10-24T13:56:19.079Z,14.40
2022-10-24T13:58:46.663Z,14.40
2022-10-24T14:01:30.242Z,14.30
2022-10-24T14:03:59.337Z,14.20
2022-10-24T14:06:31.688Z,14.10
2022-10-24T14:09:07.222Z,14.10
2022-10-24T14:11:35.261Z,14.10
2022-10-24T14:14:06.051Z,14.00
2022-10-24T14:16:34.839Z,13.90
2022-10-24T14:19:29.807Z,13.90
2022-10-24T14:21:58.590Z,13.90
2022-10-24T14:24:25.634Z,13.90
2022-10-24T14:26:56.935Z,13.70
2022-10-24T14:29:32.477Z,13.70
2022-10-24T14:32:07.969Z,13.70
2022-10-24T14:34:36.927Z,13.60
2022-10-24T14:37:13.950Z,13.60
2022-10-24T14:39:41.461Z,13.60
2022-10-24T14:42:15.667Z,13.60
2022-10-24T14:44:46.274Z,13.60
2022-10-24T14:47:26.685Z,13.50
2022-10-24T14:49:53.721Z,13.40
2022-10-24T14:52:26.088Z,13.30
2022-10-24T14:55:04.379Z,13.30
2022-10-24T14:57:32.956Z,13.30
2022-10-24T15:00:07.603Z,13.30
2022-10-24T15:02:42.902Z,13.30
2022-10-24T15:05:15.306Z,13.30
2022-10-24T15:07:57.168Z,13.20
2022-10-24T15:10:37.262Z,13.30
2022-10-24T15:13:14.925Z,13.30
2022-10-24T15:15:44.469Z,13.30
2022-10-24T15:18:30.677Z,13.30
2022-10-24T15:21:04.916Z,13.20
2022-10-24T15:23:37.435Z,13.10
2022-10-24T15:26:10.639Z,13.20
2022-10-24T15:28:45.449Z,13.10
2022-10-24T15:31:14.444Z,13.10
2022-10-24T15:33:41.296Z,13.00
2022-10-24T15:36:20.001Z,13.00
2022-10-24T15:38:48.552Z,13.00
2022-10-24T15:41:16.424Z,12.90
2022-10-24T15:43:43.271Z,12.90
2022-10-24T15:46:10.026Z,12.80
2022-10-24T15:48:39.368Z,12.90
2022-10-24T15:51:06.322Z,12.90
2022-10-24T15:53:33.237Z,12.80
2022-10-24T15:55:59.986Z,12.80
2022-10-24T15:58:28.774Z,12.90
2022-10-24T16:00:55.730Z,12.90
2022-10-24T16:03:23.756Z,12.80
2022-10-24T16:05:56.066Z,12.90
2022-10-24T16:08:24.100Z,12.80
2022-10-24T16:10:52.397Z,12.80
2022-10-24T16:13:21.629Z,12.70
2022-10-24T16:15:49.598Z,12.70
2022-10-24T16:18:17.022Z,12.60
2022-10-24T16:20:44.149Z,12.70
2022-10-24T16:23:13.758Z,12.70
2022-10-24T16:25:40.755Z,12.70
2022-10-24T16:28:08.152Z,12.70
2022-10-24T16:30:38.020Z,12.60
2022-10-24T16:33:05.463Z,12.60
2022-10-24T16:35:34.672Z,12.70
2022-10-24T16:38:02.707Z,12.70
2022-10-24T16:40:30.286Z,12.60
2022-10-24T16:43:00.187Z,12.60
2022-10-24T16:45:27.263Z,12.60
2022-10-24T16:47:54.057Z,12.60
2022-10-24T16:50:24.765Z,12.50
2022-10-24T16:52:56.771Z,12.50
2022-10-24T16:55:23.622Z,12.50
2022-10-24T16:57:50.439Z,12.50
2022-10-24T17:00:19.193Z,12.60
2022-10-24T17:02:51.307Z,12.60
2022-10-24T17:05:20.067Z,12.60
2022-10-24T17:07:47.287Z,12.70
2022-10-24T17:10:14.716Z,12.80
2022-10-24T17:12:43.367Z,12.80
2022-10-24T17:15:11.697Z,12.80
2022-10-24T17:17:39.928Z,12.80
2022-10-24T17:20:09.849Z,12.70
2022-10-24T17:22:37.935Z,12.50
2022-10-24T17:25:06.245Z,12.40
2022-10-24T17:27:33.254Z,12.40
2022-10-24T17:30:00.141Z,12.40
2022-10-24T17:32:27.070Z,12.40
2022-10-24T17:34:55.326Z,12.40
2022-10-24T17:37:32.879Z,12.40
2022-10-24T17:40:04.856Z,12.40
2022-10-24T17:42:31.863Z,12.50
2022-10-24T17:44:58.773Z,12.60
2022-10-24T17:47:25.687Z,12.50
2022-10-24T17:49:52.444Z,12.40
2022-10-24T17:52:23.726Z,12.40
2022-10-24T17:54:51.071Z,12.30
2022-10-24T17:57:17.917Z,12.30
2022-10-24T17:59:44.871Z,12.40
2022-10-24T18:02:13.947Z,12.50
2022-10-24T18:04:42.881Z,12.50
2022-10-24T18:07:09.982Z,12.50
2022-10-24T18:09:39.112Z,12.50
2022-10-24T18:12:06.689Z,12.60
2022-10-24T18:14:35.841Z,12.60
2022-10-24T18:17:02.765Z,12.50
2022-10-24T18:19:29.595Z,12.40
2022-10-24T18:21:56.485Z,12.40
2022-10-24T18:24:23.224Z,12.30
2022-10-24T18:26:49.992Z,12.30
2022-10-24T18:29:16.819Z,12.20
2022-10-24T18:31:43.637Z,12.20
2022-10-24T18:34:10.494Z,12.30
2022-10-24T18:36:37.448Z,12.30
2022-10-24T18:39:05.564Z,12.20
2022-10-24T18:41:48.551Z,12.20
2022-10-24T18:44:25.432Z,12.20
2022-10-24T18:46:53.947Z,12.30
2022-10-24T18:49:21.045Z,12.30
2022-10-24T18:52:03.941Z,12.40
2022-10-24T18:54:30.997Z,12.20
2022-10-24T18:56:59.099Z,12.20
2022-10-24T18:59:26.151Z,12.30
2022-10-24T19:02:25.839Z,12.20
2022-10-24T19:05:18.611Z,12.10
2022-10-24T19:07:46.323Z,12.00
2022-10-24T19:10:25.904Z,12.00
2022-10-24T19:12:54.455Z,11.90
2022-10-24T19:15:21.985Z,11.90
2022-10-24T19:17:50.957Z,11.90
2022-10-24T19:20:23.513Z,11.90
2022-10-24T19:22:51.065Z,11.90
2022-10-24T19:25:18.030Z,12.00
2022-10-24T19:27:44.993Z,12.10
2022-10-24T19:30:12.728Z,12.00
2022-10-24T19:32:39.571Z,12.00
2022-10-24T19:35:06.904Z,12.10
2022-10-24T19:37:33.788Z,12.20
2022-10-24T19:40:00.617Z,12.20
2022-10-24T19:42:27.497Z,12.20
2022-10-24T19:44:56.458Z,12.30
2022-10-24T19:47:23.459Z,12.30
2022-10-24T19:49:50.290Z,12.20
2022-10-24T19:52:17.253Z,12.10
2022-10-24T19:54:44.593Z,12.20
2022-10-24T19:57:11.914Z,12.20
2022-10-24T19:59:38.780Z,12.10
2022-10-24T20:02:05.897Z,12.10
2022-10-24T20:04:33.624Z,12.10
2022-10-24T20:07:00.428Z,12.10
2022-10-24T20:09:27.169Z,12.10
2022-10-24T20:11:53.907Z,12.10
2022-10-24T20:14:20.757Z,12.10
2022-10-24T20:16:47.505Z,12.10
2022-10-24T20:19:14.316Z,12.20
2022-10-24T20:21:41.137Z,12.20
2022-10-24T20:24:08.251Z,12.20
2022-10-24T20:26:35.212Z,12.30
2022-10-24T20:29:03.584Z,12.20
2022-10-24T20:31:36.553Z,12.20
2022-10-24T20:34:09.578Z,12.10
2022-10-24T20:36:38.345Z,12.10
2022-10-24T20:39:06.898Z,12.20
2022-10-24T20:41:35.006Z,12.20
2022-10-24T20:44:02.660Z,12.20
2022-10-24T20:46:29.499Z,12.20
2022-10-24T20:48:56.976Z,12.20
2022-10-24T20:51:23.789Z,12.20
2022-10-24T20:53:50.638Z,12.20
2022-10-24T20:56:22.092Z,12.10
2022-10-24T20:58:50.941Z,12.20
2022-10-24T21:01:23.420Z,12.20
2022-10-24T21:03:51.644Z,12.20
2022-10-24T21:06:21.125Z,12.10
2022-10-24T21:08:49.236Z,12.20
2022-10-24T21:11:18.396Z,12.10
2022-10-24T21:13:45.727Z,12.10
2022-10-24T21:16:13.302Z,12.10
2022-10-24T21:18:40.369Z,12.10
2022-10-24T21:21:12.239Z,12.10
2022-10-24T21:23:39.316Z,12.10
2022-10-24T21:26:09.020Z,12.10
2022-10-24T21:28:36.636Z,12.00
2022-10-24T21:31:11.906Z,12.10
2022-10-24T21:33:41.330Z,12.00
2022-10-24T21:36:20.056Z,12.10
2022-10-24T21:38:48.557Z,12.10
2022-10-24T21:41:15.986Z,12.10
2022-10-24T21:43:43.140Z,12.10
2022-10-24T21:46:12.929Z,12.10
2022-10-24T21:48:41.110Z,12.10
2022-10-24T21:51:13.863Z,12.10
2022-10-24T21:53:43.118Z,12.20
2022-10-24T21:56:13.359Z,12.40
2022-10-24T21:58:40.883Z,12.40
2022-10-24T22:01:16.349Z,12.40
2022-10-24T22:03:43.573Z,12.30
2022-10-24T22:06:12.512Z,12.30
2022-10-24T22:08:39.355Z,12.20
2022-10-24T22:11:09.120Z,12.30
2022-10-24T22:13:36.780Z,12.30
2022-10-24T22:16:05.280Z,12.30
2022-10-24T22:18:32.953Z,12.30
2022-10-24T22:21:01.581Z,12.40
2022-10-24T22:23:29.097Z,12.40
2022-10-24T22:25:56.091Z,12.40
2022-10-24T22:28:22.843Z,12.30
2022-10-24T22:30:49.893Z,12.30
2022-10-24T22:33:23.804Z,12.40
2022-10-24T22:35:58.101Z,12.40
2022-10-24T22:38:25.149Z,12.40
2022-10-24T22:43:24.227Z,12.40
2022-10-24T22:46:05.364Z,12.40
2022-10-24T22:48:35.945Z,12.50
2022-10-24T22:51:02.912Z,12.50
2022-10-24T22:53:31.168Z,12.50
2022-10-24T22:56:13.484Z,12.50
2022-10-24T22:58:42.510Z,12.50
2022-10-24T23:01:27.678Z,12.50
2022-10-24T23:04:15.731Z,12.60
2022-10-24T23:07:20.557Z,12.50
2022-10-24T23:09:48.269Z,12.50
2022-10-24T23:12:17.244Z,12.60
2022-10-24T23:14:45.113Z,12.60
2022-10-24T23:17:28.444Z,12.60
2022-10-24T23:19:56.831Z,12.50
2022-10-24T23:22:27.724Z,12.60
2022-10-24T23:24:57.867Z,12.60
2022-10-24T23:27:39.901Z,12.50
2022-10-24T23:30:22.084Z,12.50
2022-10-24T23:32:50.752Z,12.50
2022-10-24T23:35:19.859Z,12.50
2022-10-24T23:37:49.557Z,12.50
2022-10-24T23:40:33.586Z,12.50
2022-10-24T23:43:01.640Z,12.50
2022-10-24T23:45:47.936Z,12.50
2022-10-24T23:48:23.429Z,12.50
2022-10-24T23:50:53.172Z,12.50
2022-10-24T23:53:50.277Z,12.40
2022-10-24T23:56:19.424Z,12.50
2022-10-24T23:58:46.472Z,12.50
